sensor_id;sensor_type;location;lat;lon;timestamp;P1;durP1;ratioP1;P2;durP2;ratioP2
20861;SDS011;10591;52.532;13.348;2023-04-24T00:01:13;7.20;;;5.50;;
20861;SDS011;10591;52.532;13.348;2023-04-24T00:03:46;6.22;;;5.65;;
20861;SDS011;10591;52.532;13.348;2023-04-24T00:06:17;5.95;;;5.45;;
20861;SDS011;10591;52.532;13.348;2023-04-24T00:08:48;6.92;;;5.78;;
20861;SDS011;10591;52.532;13.348;2023-04-24T00:11:21;5.92;;;5.42;;
20861;SDS011;10591;52.532;13.348;2023-04-24T00:13:52;6.30;;;5.70;;
20861;SDS011;10591;52.532;13.348;2023-04-24T00:16:23;6.20;;;5.70;;
20861;SDS011;10591;52.532;13.348;2023-04-24T00:18:56;6.47;;;5.87;;
20861;SDS011;10591;52.532;13.348;2023-04-24T00:21:27;6.50;;;5.35;;
20861;SDS011;10591;52.532;13.348;2023-04-24T00:23:58;5.80;;;5.28;;
20861;SDS011;10591;52.532;13.348;2023-04-24T00:26:30;6.42;;;5.83;;
20861;SDS011;10591;52.532;13.348;2023-04-24T00:29:01;6.35;;;5.78;;
20861;SDS011;10591;52.532;13.348;2023-04-24T00:31:32;7.90;;;6.05;;
20861;SDS011;10591;52.532;13.348;2023-04-24T00:34:06;6.30;;;5.72;;
20861;SDS011;10591;52.532;13.348;2023-04-24T00:36:37;6.25;;;5.65;;
20861;SDS011;10591;52.532;13.348;2023-04-24T00:39:09;7.20;;;6.50;;
20861;SDS011;10591;52.532;13.348;2023-04-24T00:41:40;6.47;;;5.97;;
20861;SDS011;10591;52.532;13.348;2023-04-24T00:44:11;6.90;;;6.30;;
20861;SDS011;10591;52.532;13.348;2023-04-24T00:46:42;6.58;;;5.97;;
20861;SDS011;10591;52.532;13.348;2023-04-24T00:49:13;6.80;;;6.10;;
20861;SDS011;10591;52.532;13.348;2023-04-24T00:51:46;6.92;;;6.22;;
20861;SDS011;10591;52.532;13.348;2023-04-24T00:54:18;6.85;;;6.25;;
20861;SDS011;10591;52.532;13.348;2023-04-24T00:56:51;7.00;;;6.30;;
20861;SDS011;10591;52.532;13.348;2023-04-24T00:59:25;6.50;;;5.90;;
20861;SDS011;10591;52.532;13.348;2023-04-24T01:01:57;6.75;;;6.03;;
20861;SDS011;10591;52.532;13.348;2023-04-24T01:04:28;7.00;;;6.33;;
20861;SDS011;10591;52.532;13.348;2023-04-24T01:07:00;6.70;;;6.03;;
20861;SDS011;10591;52.532;13.348;2023-04-24T01:09:31;7.33;;;6.62;;
20861;SDS011;10591;52.532;13.348;2023-04-24T01:12:02;6.95;;;6.35;;
20861;SDS011;10591;52.532;13.348;2023-04-24T01:14:33;6.92;;;6.22;;
20861;SDS011;10591;52.532;13.348;2023-04-24T01:17:05;7.03;;;6.33;;
20861;SDS011;10591;52.532;13.348;2023-04-24T01:19:37;7.05;;;6.35;;
20861;SDS011;10591;52.532;13.348;2023-04-24T01:22:11;7.17;;;6.47;;
20861;SDS011;10591;52.532;13.348;2023-04-24T01:24:46;7.08;;;6.47;;
20861;SDS011;10591;52.532;13.348;2023-04-24T01:27:16;6.70;;;6.10;;
20861;SDS011;10591;52.532;13.348;2023-04-24T01:29:47;6.92;;;6.22;;
20861;SDS011;10591;52.532;13.348;2023-04-24T01:32:21;6.65;;;6.10;;
20861;SDS011;10591;52.532;13.348;2023-04-24T01:34:51;7.30;;;6.37;;
20861;SDS011;10591;52.532;13.348;2023-04-24T01:37:22;6.92;;;6.22;;
20861;SDS011;10591;52.532;13.348;2023-04-24T01:39:54;7.62;;;6.70;;
20861;SDS011;10591;52.532;13.348;2023-04-24T01:42:25;7.22;;;6.62;;
20861;SDS011;10591;52.532;13.348;2023-04-24T01:44:56;7.55;;;6.80;;
20861;SDS011;10591;52.532;13.348;2023-04-24T01:47:31;7.75;;;6.95;;
20861;SDS011;10591;52.532;13.348;2023-04-24T01:50:02;7.17;;;6.53;;
20861;SDS011;10591;52.532;13.348;2023-04-24T01:52:35;7.10;;;6.50;;
20861;SDS011;10591;52.532;13.348;2023-04-24T01:55:06;7.40;;;6.70;;
20861;SDS011;10591;52.532;13.348;2023-04-24T01:57:37;7.60;;;6.83;;
20861;SDS011;10591;52.532;13.348;2023-04-24T02:00:09;7.42;;;6.72;;
20861;SDS011;10591;52.532;13.348;2023-04-24T02:02:41;8.40;;;7.00;;
20861;SDS011;10591;52.532;13.348;2023-04-24T02:05:14;7.60;;;6.90;;
20861;SDS011;10591;52.532;13.348;2023-04-24T02:07:45;7.20;;;6.50;;
20861;SDS011;10591;52.532;13.348;2023-04-24T02:10:18;7.95;;;7.15;;
20861;SDS011;10591;52.532;13.348;2023-04-24T02:12:48;7.65;;;6.95;;
20861;SDS011;10591;52.532;13.348;2023-04-24T02:15:19;7.45;;;6.75;;
20861;SDS011;10591;52.532;13.348;2023-04-24T02:17:49;7.65;;;6.95;;
20861;SDS011;10591;52.532;13.348;2023-04-24T02:20:20;7.40;;;6.80;;
20861;SDS011;10591;52.532;13.348;2023-04-24T02:22:50;7.95;;;7.25;;
20861;SDS011;10591;52.532;13.348;2023-04-24T02:25:21;8.10;;;7.40;;
20861;SDS011;10591;52.532;13.348;2023-04-24T02:27:52;7.67;;;6.97;;
20861;SDS011;10591;52.532;13.348;2023-04-24T02:30:22;7.90;;;7.20;;
20861;SDS011;10591;52.532;13.348;2023-04-24T02:32:52;7.90;;;7.20;;
20861;SDS011;10591;52.532;13.348;2023-04-24T02:35:24;8.00;;;7.10;;
20861;SDS011;10591;52.532;13.348;2023-04-24T02:37:55;8.30;;;7.33;;
20861;SDS011;10591;52.532;13.348;2023-04-24T02:40:25;8.55;;;7.65;;
20861;SDS011;10591;52.532;13.348;2023-04-24T02:42:56;8.43;;;7.62;;
20861;SDS011;10591;52.532;13.348;2023-04-24T02:45:26;8.10;;;7.40;;
20861;SDS011;10591;52.532;13.348;2023-04-24T02:47:57;7.65;;;6.97;;
20861;SDS011;10591;52.532;13.348;2023-04-24T02:50:28;9.10;;;8.20;;
20861;SDS011;10591;52.532;13.348;2023-04-24T02:52:59;8.25;;;7.45;;
20861;SDS011;10591;52.532;13.348;2023-04-24T02:55:30;8.85;;;7.87;;
20861;SDS011;10591;52.532;13.348;2023-04-24T02:58:00;8.90;;;8.00;;
20861;SDS011;10591;52.532;13.348;2023-04-24T03:00:33;8.90;;;7.90;;
20861;SDS011;10591;52.532;13.348;2023-04-24T03:03:04;8.90;;;8.10;;
20861;SDS011;10591;52.532;13.348;2023-04-24T03:05:36;9.10;;;8.20;;
20861;SDS011;10591;52.532;13.348;2023-04-24T03:08:06;9.48;;;8.58;;
20861;SDS011;10591;52.532;13.348;2023-04-24T03:10:37;9.18;;;8.23;;
20861;SDS011;10591;52.532;13.348;2023-04-24T03:13:08;8.68;;;7.87;;
20861;SDS011;10591;52.532;13.348;2023-04-24T03:15:40;8.33;;;7.53;;
20861;SDS011;10591;52.532;13.348;2023-04-24T03:18:10;9.10;;;8.20;;
20861;SDS011;10591;52.532;13.348;2023-04-24T03:20:41;8.88;;;7.97;;
20861;SDS011;10591;52.532;13.348;2023-04-24T03:23:12;8.50;;;7.60;;
20861;SDS011;10591;52.532;13.348;2023-04-24T03:25:43;8.35;;;7.55;;
20861;SDS011;10591;52.532;13.348;2023-04-24T03:28:14;8.30;;;7.47;;
20861;SDS011;10591;52.532;13.348;2023-04-24T03:30:45;8.05;;;7.33;;
20861;SDS011;10591;52.532;13.348;2023-04-24T03:33:16;8.70;;;7.85;;
20861;SDS011;10591;52.532;13.348;2023-04-24T03:35:46;8.08;;;7.37;;
20861;SDS011;10591;52.532;13.348;2023-04-24T03:38:19;8.55;;;7.75;;
20861;SDS011;10591;52.532;13.348;2023-04-24T03:40:51;8.88;;;8.00;;
20861;SDS011;10591;52.532;13.348;2023-04-24T03:43:22;8.60;;;7.80;;
20861;SDS011;10591;52.532;13.348;2023-04-24T03:45:53;8.40;;;7.60;;
20861;SDS011;10591;52.532;13.348;2023-04-24T03:48:24;8.60;;;7.80;;
20861;SDS011;10591;52.532;13.348;2023-04-24T03:50:56;8.10;;;7.30;;
20861;SDS011;10591;52.532;13.348;2023-04-24T03:53:26;8.88;;;7.53;;
20861;SDS011;10591;52.532;13.348;2023-04-24T03:55:57;8.28;;;7.58;;
20861;SDS011;10591;52.532;13.348;2023-04-24T03:58:27;7.92;;;7.12;;
20861;SDS011;10591;52.532;13.348;2023-04-24T04:00:58;8.50;;;7.70;;
20861;SDS011;10591;52.532;13.348;2023-04-24T04:03:28;7.80;;;7.00;;
20861;SDS011;10591;52.532;13.348;2023-04-24T04:05:59;7.72;;;6.92;;
20861;SDS011;10591;52.532;13.348;2023-04-24T04:08:30;7.40;;;6.75;;
20861;SDS011;10591;52.532;13.348;2023-04-24T04:11:00;7.85;;;7.05;;
20861;SDS011;10591;52.532;13.348;2023-04-24T04:13:33;7.95;;;7.15;;
20861;SDS011;10591;52.532;13.348;2023-04-24T04:16:03;9.35;;;7.55;;
20861;SDS011;10591;52.532;13.348;2023-04-24T04:18:34;7.72;;;7.03;;
20861;SDS011;10591;52.532;13.348;2023-04-24T04:21:06;8.38;;;7.10;;
20861;SDS011;10591;52.532;13.348;2023-04-24T04:23:37;7.67;;;6.85;;
20861;SDS011;10591;52.532;13.348;2023-04-24T04:26:09;6.53;;;6.03;;
20861;SDS011;10591;52.532;13.348;2023-04-24T04:28:41;6.72;;;6.03;;
20861;SDS011;10591;52.532;13.348;2023-04-24T04:31:13;6.85;;;6.15;;
20861;SDS011;10591;52.532;13.348;2023-04-24T04:33:45;6.50;;;5.87;;
20861;SDS011;10591;52.532;13.348;2023-04-24T04:36:16;7.75;;;7.00;;
20861;SDS011;10591;52.532;13.348;2023-04-24T04:38:50;8.00;;;6.65;;
20861;SDS011;10591;52.532;13.348;2023-04-24T04:41:22;6.87;;;6.22;;
20861;SDS011;10591;52.532;13.348;2023-04-24T04:43:53;6.22;;;5.62;;
20861;SDS011;10591;52.532;13.348;2023-04-24T04:46:26;7.35;;;6.50;;
20861;SDS011;10591;52.532;13.348;2023-04-24T04:48:56;7.22;;;6.53;;
20861;SDS011;10591;52.532;13.348;2023-04-24T04:51:27;6.25;;;5.65;;
20861;SDS011;10591;52.532;13.348;2023-04-24T04:53:59;8.50;;;6.53;;
20861;SDS011;10591;52.532;13.348;2023-04-24T04:56:31;7.10;;;6.50;;
20861;SDS011;10591;52.532;13.348;2023-04-24T04:59:01;6.45;;;5.90;;
20861;SDS011;10591;52.532;13.348;2023-04-24T05:01:32;7.17;;;5.80;;
20861;SDS011;10591;52.532;13.348;2023-04-24T05:04:03;5.90;;;5.30;;
20861;SDS011;10591;52.532;13.348;2023-04-24T05:06:33;11.15;;;9.28;;
20861;SDS011;10591;52.532;13.348;2023-04-24T05:09:04;6.28;;;5.70;;
20861;SDS011;10591;52.532;13.348;2023-04-24T05:11:36;6.40;;;5.90;;
20861;SDS011;10591;52.532;13.348;2023-04-24T05:14:08;5.90;;;5.30;;
20861;SDS011;10591;52.532;13.348;2023-04-24T05:16:39;5.65;;;5.17;;
20861;SDS011;10591;52.532;13.348;2023-04-24T05:19:10;5.75;;;5.25;;
20861;SDS011;10591;52.532;13.348;2023-04-24T05:21:42;5.67;;;5.17;;
20861;SDS011;10591;52.532;13.348;2023-04-24T05:24:12;5.33;;;4.83;;
20861;SDS011;10591;52.532;13.348;2023-04-24T05:26:45;5.90;;;5.30;;
20861;SDS011;10591;52.532;13.348;2023-04-24T05:29:16;5.97;;;5.40;;
20861;SDS011;10591;52.532;13.348;2023-04-24T05:31:47;5.92;;;4.90;;
20861;SDS011;10591;52.532;13.348;2023-04-24T05:34:19;4.62;;;4.22;;
20861;SDS011;10591;52.532;13.348;2023-04-24T05:36:51;4.40;;;4.05;;
20861;SDS011;10591;52.532;13.348;2023-04-24T05:39:23;4.47;;;4.08;;
20861;SDS011;10591;52.532;13.348;2023-04-24T05:41:54;3.92;;;3.52;;
20861;SDS011;10591;52.532;13.348;2023-04-24T05:44:27;3.47;;;3.22;;
20861;SDS011;10591;52.532;13.348;2023-04-24T05:46:59;4.00;;;3.70;;
20861;SDS011;10591;52.532;13.348;2023-04-24T05:49:31;3.62;;;3.30;;
20861;SDS011;10591;52.532;13.348;2023-04-24T05:52:02;3.98;;;3.55;;
20861;SDS011;10591;52.532;13.348;2023-04-24T05:54:34;3.80;;;3.40;;
20861;SDS011;10591;52.532;13.348;2023-04-24T05:57:05;3.72;;;3.42;;
20861;SDS011;10591;52.532;13.348;2023-04-24T05:59:37;5.08;;;3.20;;
20861;SDS011;10591;52.532;13.348;2023-04-24T06:02:09;4.03;;;3.70;;
20861;SDS011;10591;52.532;13.348;2023-04-24T06:04:42;3.85;;;3.10;;
20861;SDS011;10591;52.532;13.348;2023-04-24T06:07:14;3.90;;;3.12;;
20861;SDS011;10591;52.532;13.348;2023-04-24T06:09:46;3.65;;;3.35;;
20861;SDS011;10591;52.532;13.348;2023-04-24T06:12:18;4.67;;;3.20;;
20861;SDS011;10591;52.532;13.348;2023-04-24T06:14:49;3.35;;;2.85;;
20861;SDS011;10591;52.532;13.348;2023-04-24T06:17:23;4.22;;;3.10;;
20861;SDS011;10591;52.532;13.348;2023-04-24T06:19:55;3.40;;;3.10;;
20861;SDS011;10591;52.532;13.348;2023-04-24T06:22:27;3.37;;;2.80;;
20861;SDS011;10591;52.532;13.348;2023-04-24T06:24:59;4.55;;;2.62;;
20861;SDS011;10591;52.532;13.348;2023-04-24T06:27:32;2.55;;;2.37;;
20861;SDS011;10591;52.532;13.348;2023-04-24T06:30:03;2.58;;;2.33;;
20861;SDS011;10591;52.532;13.348;2023-04-24T06:32:35;2.65;;;2.45;;
20861;SDS011;10591;52.532;13.348;2023-04-24T06:35:06;2.65;;;2.20;;
20861;SDS011;10591;52.532;13.348;2023-04-24T06:37:41;3.02;;;2.72;;
20861;SDS011;10591;52.532;13.348;2023-04-24T06:40:12;3.98;;;2.60;;
20861;SDS011;10591;52.532;13.348;2023-04-24T06:42:43;3.80;;;2.45;;
20861;SDS011;10591;52.532;13.348;2023-04-24T06:45:13;2.98;;;2.60;;
20861;SDS011;10591;52.532;13.348;2023-04-24T06:47:44;2.25;;;2.12;;
20861;SDS011;10591;52.532;13.348;2023-04-24T06:50:15;2.58;;;2.20;;
20861;SDS011;10591;52.532;13.348;2023-04-24T06:52:47;2.62;;;2.27;;
20861;SDS011;10591;52.532;13.348;2023-04-24T06:55:19;3.85;;;2.15;;
20861;SDS011;10591;52.532;13.348;2023-04-24T06:57:51;2.00;;;1.80;;
20861;SDS011;10591;52.532;13.348;2023-04-24T07:00:24;1.98;;;1.80;;
20861;SDS011;10591;52.532;13.348;2023-04-24T07:02:56;2.67;;;1.60;;
20861;SDS011;10591;52.532;13.348;2023-04-24T07:05:31;1.98;;;1.75;;
20861;SDS011;10591;52.532;13.348;2023-04-24T07:08:08;1.90;;;1.80;;
20861;SDS011;10591;52.532;13.348;2023-04-24T07:10:41;2.17;;;1.85;;
20861;SDS011;10591;52.532;13.348;2023-04-24T07:13:14;1.92;;;1.62;;
20861;SDS011;10591;52.532;13.348;2023-04-24T07:15:46;1.50;;;1.40;;
20861;SDS011;10591;52.532;13.348;2023-04-24T07:18:21;2.87;;;1.60;;
20861;SDS011;10591;52.532;13.348;2023-04-24T07:21:02;1.50;;;1.30;;
20861;SDS011;10591;52.532;13.348;2023-04-24T07:23:33;1.90;;;1.70;;
20861;SDS011;10591;52.532;13.348;2023-04-24T07:26:04;1.60;;;1.50;;
20861;SDS011;10591;52.532;13.348;2023-04-24T07:28:36;1.42;;;1.32;;
20861;SDS011;10591;52.532;13.348;2023-04-24T07:31:08;13.68;;;3.12;;
20861;SDS011;10591;52.532;13.348;2023-04-24T07:33:40;6.47;;;2.10;;
20861;SDS011;10591;52.532;13.348;2023-04-24T07:36:11;2.08;;;1.98;;
20861;SDS011;10591;52.532;13.348;2023-04-24T07:38:44;2.98;;;1.80;;
20861;SDS011;10591;52.532;13.348;2023-04-24T07:41:15;1.47;;;1.37;;
20861;SDS011;10591;52.532;13.348;2023-04-24T07:43:46;1.62;;;1.52;;
20861;SDS011;10591;52.532;13.348;2023-04-24T07:46:16;3.10;;;1.30;;
20861;SDS011;10591;52.532;13.348;2023-04-24T07:48:48;1.65;;;1.20;;
20861;SDS011;10591;52.532;13.348;2023-04-24T07:51:21;1.87;;;1.32;;
20861;SDS011;10591;52.532;13.348;2023-04-24T07:53:53;1.60;;;1.20;;
20861;SDS011;10591;52.532;13.348;2023-04-24T07:56:24;1.72;;;1.27;;
20861;SDS011;10591;52.532;13.348;2023-04-24T07:58:57;2.33;;;1.20;;
20861;SDS011;10591;52.532;13.348;2023-04-24T08:01:28;1.50;;;1.40;;
20861;SDS011;10591;52.532;13.348;2023-04-24T08:03:59;2.55;;;1.20;;
20861;SDS011;10591;52.532;13.348;2023-04-24T08:06:30;1.57;;;1.47;;
20861;SDS011;10591;52.532;13.348;2023-04-24T08:09:01;1.52;;;1.20;;
20861;SDS011;10591;52.532;13.348;2023-04-24T08:11:32;1.67;;;1.22;;
20861;SDS011;10591;52.532;13.348;2023-04-24T08:14:03;1.75;;;1.20;;
20861;SDS011;10591;52.532;13.348;2023-04-24T08:16:34;1.55;;;1.32;;
20861;SDS011;10591;52.532;13.348;2023-04-24T08:19:06;1.30;;;1.20;;
20861;SDS011;10591;52.532;13.348;2023-04-24T08:21:37;1.30;;;1.20;;
20861;SDS011;10591;52.532;13.348;2023-04-24T08:24:09;1.40;;;1.17;;
20861;SDS011;10591;52.532;13.348;2023-04-24T08:26:40;1.25;;;1.15;;
20861;SDS011;10591;52.532;13.348;2023-04-24T08:29:14;2.37;;;1.80;;
20861;SDS011;10591;52.532;13.348;2023-04-24T08:31:44;1.40;;;1.20;;
20861;SDS011;10591;52.532;13.348;2023-04-24T08:34:15;1.47;;;1.10;;
20861;SDS011;10591;52.532;13.348;2023-04-24T08:36:46;1.30;;;1.20;;
20861;SDS011;10591;52.532;13.348;2023-04-24T08:39:17;1.12;;;1.02;;
20861;SDS011;10591;52.532;13.348;2023-04-24T08:41:49;1.40;;;1.30;;
20861;SDS011;10591;52.532;13.348;2023-04-24T08:44:22;1.05;;;0.98;;
20861;SDS011;10591;52.532;13.348;2023-04-24T08:46:54;1.65;;;1.32;;
20861;SDS011;10591;52.532;13.348;2023-04-24T08:49:26;1.30;;;1.20;;
20861;SDS011;10591;52.532;13.348;2023-04-24T08:51:58;0.90;;;0.90;;
20861;SDS011;10591;52.532;13.348;2023-04-24T08:54:29;1.40;;;1.30;;
20861;SDS011;10591;52.532;13.348;2023-04-24T08:57:03;1.92;;;1.70;;
20861;SDS011;10591;52.532;13.348;2023-04-24T08:59:36;1.20;;;1.10;;
20861;SDS011;10591;52.532;13.348;2023-04-24T09:02:09;1.95;;;1.50;;
20861;SDS011;10591;52.532;13.348;2023-04-24T09:04:40;1.17;;;1.07;;
20861;SDS011;10591;52.532;13.348;2023-04-24T09:07:12;1.15;;;1.05;;
20861;SDS011;10591;52.532;13.348;2023-04-24T09:09:46;1.10;;;0.93;;
20861;SDS011;10591;52.532;13.348;2023-04-24T09:12:20;1.17;;;1.10;;
20861;SDS011;10591;52.532;13.348;2023-04-24T09:14:51;1.12;;;1.02;;
20861;SDS011;10591;52.532;13.348;2023-04-24T09:17:23;1.67;;;1.15;;
20861;SDS011;10591;52.532;13.348;2023-04-24T09:19:56;1.65;;;1.22;;
20861;SDS011;10591;52.532;13.348;2023-04-24T09:22:28;2.17;;;1.22;;
20861;SDS011;10591;52.532;13.348;2023-04-24T09:25:04;2.27;;;1.27;;
20861;SDS011;10591;52.532;13.348;2023-04-24T09:27:36;1.87;;;1.22;;
20861;SDS011;10591;52.532;13.348;2023-04-24T09:30:08;1.22;;;1.12;;
20861;SDS011;10591;52.532;13.348;2023-04-24T09:32:40;3.37;;;1.50;;
20861;SDS011;10591;52.532;13.348;2023-04-24T09:35:11;1.40;;;1.22;;
20861;SDS011;10591;52.532;13.348;2023-04-24T09:37:46;2.77;;;1.30;;
20861;SDS011;10591;52.532;13.348;2023-04-24T09:40:18;2.55;;;1.50;;
20861;SDS011;10591;52.532;13.348;2023-04-24T09:42:52;1.40;;;1.30;;
20861;SDS011;10591;52.532;13.348;2023-04-24T09:45:39;1.60;;;1.40;;
20861;SDS011;10591;52.532;13.348;2023-04-24T09:48:02;1.95;;;1.55;;
20861;SDS011;10591;52.532;13.348;2023-04-24T09:50:35;2.17;;;1.52;;
20861;SDS011;10591;52.532;13.348;2023-04-24T09:53:06;2.60;;;1.50;;
20861;SDS011;10591;52.532;13.348;2023-04-24T09:55:42;1.85;;;1.65;;
20861;SDS011;10591;52.532;13.348;2023-04-24T09:58:17;2.20;;;1.50;;
20861;SDS011;10591;52.532;13.348;2023-04-24T10:00:47;1.72;;;1.30;;
20861;SDS011;10591;52.532;13.348;2023-04-24T10:03:18;2.50;;;1.22;;
20861;SDS011;10591;52.532;13.348;2023-04-24T10:08:56;3.80;;;1.22;;
20861;SDS011;10591;52.532;13.348;2023-04-24T10:11:27;3.33;;;1.37;;
20861;SDS011;10591;52.532;13.348;2023-04-24T10:13:59;2.42;;;1.60;;
20861;SDS011;10591;52.532;13.348;2023-04-24T10:16:32;1.87;;;1.70;;
20861;SDS011;10591;52.532;13.348;2023-04-24T10:19:03;2.12;;;1.30;;
20861;SDS011;10591;52.532;13.348;2023-04-24T10:21:36;2.60;;;1.20;;
20861;SDS011;10591;52.532;13.348;2023-04-24T10:24:09;1.37;;;1.27;;
20861;SDS011;10591;52.532;13.348;2023-04-24T10:26:40;2.35;;;1.47;;
20861;SDS011;10591;52.532;13.348;2023-04-24T10:29:12;1.77;;;1.40;;
20861;SDS011;10591;52.532;13.348;2023-04-24T10:31:44;1.65;;;1.55;;
20861;SDS011;10591;52.532;13.348;2023-04-24T10:34:16;1.57;;;1.45;;
20861;SDS011;10591;52.532;13.348;2023-04-24T10:36:53;1.67;;;1.55;;
20861;SDS011;10591;52.532;13.348;2023-04-24T10:39:26;1.75;;;1.57;;
20861;SDS011;10591;52.532;13.348;2023-04-24T10:41:57;1.47;;;1.27;;
20861;SDS011;10591;52.532;13.348;2023-04-24T10:44:35;1.92;;;1.40;;
20861;SDS011;10591;52.532;13.348;2023-04-24T10:47:01;2.42;;;2.10;;
20861;SDS011;10591;52.532;13.348;2023-04-24T10:49:32;1.30;;;1.20;;
20861;SDS011;10591;52.532;13.348;2023-04-24T10:52:03;1.80;;;1.25;;
20861;SDS011;10591;52.532;13.348;2023-04-24T10:54:35;3.42;;;1.30;;
20861;SDS011;10591;52.532;13.348;2023-04-24T11:02:45;2.10;;;1.50;;
20861;SDS011;10591;52.532;13.348;2023-04-24T11:05:19;1.82;;;1.35;;
20861;SDS011;10591;52.532;13.348;2023-04-24T11:08:13;2.02;;;1.45;;
20861;SDS011;10591;52.532;13.348;2023-04-24T11:10:47;1.50;;;1.25;;
20861;SDS011;10591;52.532;13.348;2023-04-24T11:13:22;1.22;;;1.22;;
20861;SDS011;10591;52.532;13.348;2023-04-24T11:16:13;1.10;;;1.10;;
20861;SDS011;10591;52.532;13.348;2023-04-24T11:18:59;1.50;;;1.32;;
20861;SDS011;10591;52.532;13.348;2023-04-24T11:21:24;2.90;;;1.32;;
20861;SDS011;10591;52.532;13.348;2023-04-24T11:23:55;1.35;;;1.20;;
20861;SDS011;10591;52.532;13.348;2023-04-24T11:26:26;1.95;;;1.30;;
20861;SDS011;10591;52.532;13.348;2023-04-24T11:29:08;1.80;;;1.25;;
20861;SDS011;10591;52.532;13.348;2023-04-24T11:31:40;1.50;;;1.40;;
20861;SDS011;10591;52.532;13.348;2023-04-24T11:34:15;1.70;;;1.42;;
20861;SDS011;10591;52.532;13.348;2023-04-24T11:36:46;2.17;;;1.40;;
20861;SDS011;10591;52.532;13.348;2023-04-24T11:39:17;1.85;;;1.40;;
20861;SDS011;10591;52.532;13.348;2023-04-24T11:41:48;2.20;;;1.80;;
20861;SDS011;10591;52.532;13.348;2023-04-24T11:44:19;1.60;;;1.50;;
20861;SDS011;10591;52.532;13.348;2023-04-24T11:46:52;4.17;;;2.22;;
20861;SDS011;10591;52.532;13.348;2023-04-24T11:49:25;2.40;;;1.65;;
20861;SDS011;10591;52.532;13.348;2023-04-24T11:51:55;3.30;;;2.37;;
20861;SDS011;10591;52.532;13.348;2023-04-24T11:54:28;2.17;;;1.90;;
20861;SDS011;10591;52.532;13.348;2023-04-24T11:56:58;2.00;;;1.70;;
20861;SDS011;10591;52.532;13.348;2023-04-24T11:59:34;1.80;;;1.50;;
20861;SDS011;10591;52.532;13.348;2023-04-24T12:02:06;1.60;;;1.50;;
20861;SDS011;10591;52.532;13.348;2023-04-24T12:04:43;1.95;;;1.77;;
20861;SDS011;10591;52.532;13.348;2023-04-24T12:07:11;3.50;;;2.22;;
20861;SDS011;10591;52.532;13.348;2023-04-24T12:09:45;1.85;;;1.70;;
20861;SDS011;10591;52.532;13.348;2023-04-24T12:12:19;2.55;;;1.80;;
20861;SDS011;10591;52.532;13.348;2023-04-24T12:14:53;2.02;;;1.50;;
20861;SDS011;10591;52.532;13.348;2023-04-24T12:17:26;2.00;;;1.65;;
20861;SDS011;10591;52.532;13.348;2023-04-24T12:20:00;2.20;;;2.00;;
20861;SDS011;10591;52.532;13.348;2023-04-24T12:25:19;2.65;;;1.50;;
20861;SDS011;10591;52.532;13.348;2023-04-24T12:30:42;1.62;;;1.40;;
20861;SDS011;10591;52.532;13.348;2023-04-24T12:33:17;1.75;;;1.65;;
20861;SDS011;10591;52.532;13.348;2023-04-24T12:35:51;2.15;;;1.62;;
20861;SDS011;10591;52.532;13.348;2023-04-24T12:38:24;2.20;;;1.60;;
20861;SDS011;10591;52.532;13.348;2023-04-24T12:41:11;2.20;;;1.80;;
20861;SDS011;10591;52.532;13.348;2023-04-24T12:43:52;1.80;;;1.20;;
20861;SDS011;10591;52.532;13.348;2023-04-24T12:46:24;1.42;;;1.25;;
20861;SDS011;10591;52.532;13.348;2023-04-24T12:48:57;1.55;;;1.45;;
20861;SDS011;10591;52.532;13.348;2023-04-24T12:51:29;3.27;;;1.27;;
20861;SDS011;10591;52.532;13.348;2023-04-24T12:54:00;2.27;;;1.30;;
20861;SDS011;10591;52.532;13.348;2023-04-24T12:56:33;1.70;;;1.60;;
20861;SDS011;10591;52.532;13.348;2023-04-24T12:59:06;2.65;;;1.60;;
20861;SDS011;10591;52.532;13.348;2023-04-24T13:01:38;1.50;;;1.37;;
20861;SDS011;10591;52.532;13.348;2023-04-24T13:04:08;3.33;;;1.22;;
20861;SDS011;10591;52.532;13.348;2023-04-24T13:06:45;2.50;;;1.40;;
20861;SDS011;10591;52.532;13.348;2023-04-24T13:09:15;1.42;;;1.32;;
20861;SDS011;10591;52.532;13.348;2023-04-24T13:11:47;2.30;;;1.10;;
20861;SDS011;10591;52.532;13.348;2023-04-24T13:14:18;1.42;;;1.32;;
20861;SDS011;10591;52.532;13.348;2023-04-24T13:16:50;1.20;;;1.10;;
20861;SDS011;10591;52.532;13.348;2023-04-24T13:19:24;2.98;;;1.50;;
20861;SDS011;10591;52.532;13.348;2023-04-24T13:21:56;3.33;;;1.45;;
20861;SDS011;10591;52.532;13.348;2023-04-24T13:24:28;1.40;;;1.30;;
20861;SDS011;10591;52.532;13.348;2023-04-24T13:27:00;1.80;;;1.20;;
20861;SDS011;10591;52.532;13.348;2023-04-24T13:29:32;1.50;;;1.40;;
20861;SDS011;10591;52.532;13.348;2023-04-24T13:32:05;2.60;;;1.40;;
20861;SDS011;10591;52.532;13.348;2023-04-24T13:34:36;3.02;;;1.50;;
20861;SDS011;10591;52.532;13.348;2023-04-24T13:37:07;1.42;;;1.30;;
20861;SDS011;10591;52.532;13.348;2023-04-24T13:39:38;1.65;;;1.50;;
20861;SDS011;10591;52.532;13.348;2023-04-24T13:42:11;1.42;;;1.32;;
20861;SDS011;10591;52.532;13.348;2023-04-24T13:44:42;1.47;;;1.37;;
20861;SDS011;10591;52.532;13.348;2023-04-24T13:47:14;3.35;;;1.70;;
20861;SDS011;10591;52.532;13.348;2023-04-24T13:49:45;1.30;;;1.20;;
20861;SDS011;10591;52.532;13.348;2023-04-24T13:52:15;1.60;;;1.47;;
20861;SDS011;10591;52.532;13.348;2023-04-24T13:54:46;1.35;;;1.25;;
20861;SDS011;10591;52.532;13.348;2023-04-24T13:57:18;6.05;;;3.60;;
20861;SDS011;10591;52.532;13.348;2023-04-24T13:59:49;1.57;;;1.27;;
20861;SDS011;10591;52.532;13.348;2023-04-24T14:02:19;1.87;;;1.77;;
20861;SDS011;10591;52.532;13.348;2023-04-24T14:04:50;1.40;;;1.30;;
20861;SDS011;10591;52.532;13.348;2023-04-24T14:07:21;1.90;;;1.50;;
20861;SDS011;10591;52.532;13.348;2023-04-24T14:09:53;3.22;;;1.45;;
20861;SDS011;10591;52.532;13.348;2023-04-24T14:12:24;1.40;;;1.30;;
20861;SDS011;10591;52.532;13.348;2023-04-24T14:14:55;1.50;;;1.40;;
20861;SDS011;10591;52.532;13.348;2023-04-24T14:17:26;1.42;;;1.32;;
20861;SDS011;10591;52.532;13.348;2023-04-24T14:19:57;1.37;;;1.27;;
20861;SDS011;10591;52.532;13.348;2023-04-24T14:22:29;1.40;;;1.20;;
20861;SDS011;10591;52.532;13.348;2023-04-24T14:25:00;2.37;;;1.37;;
20861;SDS011;10591;52.532;13.348;2023-04-24T14:27:30;1.85;;;1.57;;
20861;SDS011;10591;52.532;13.348;2023-04-24T14:30:03;2.95;;;1.80;;
20861;SDS011;10591;52.532;13.348;2023-04-24T14:32:35;2.22;;;1.52;;
20861;SDS011;10591;52.532;13.348;2023-04-24T14:35:06;2.58;;;1.90;;
20861;SDS011;10591;52.532;13.348;2023-04-24T14:37:37;2.10;;;1.57;;
20861;SDS011;10591;52.532;13.348;2023-04-24T14:40:09;1.47;;;1.30;;
20861;SDS011;10591;52.532;13.348;2023-04-24T14:42:43;1.57;;;1.47;;
20861;SDS011;10591;52.532;13.348;2023-04-24T14:45:15;2.65;;;1.87;;
20861;SDS011;10591;52.532;13.348;2023-04-24T14:47:46;1.50;;;1.40;;
20861;SDS011;10591;52.532;13.348;2023-04-24T14:50:17;2.27;;;1.62;;
20861;SDS011;10591;52.532;13.348;2023-04-24T14:52:49;1.60;;;1.50;;
20861;SDS011;10591;52.532;13.348;2023-04-24T14:55:20;2.10;;;1.85;;
20861;SDS011;10591;52.532;13.348;2023-04-24T14:57:53;4.53;;;2.17;;
20861;SDS011;10591;52.532;13.348;2023-04-24T15:00:25;1.75;;;1.65;;
20861;SDS011;10591;52.532;13.348;2023-04-24T15:02:56;1.60;;;1.40;;
20861;SDS011;10591;52.532;13.348;2023-04-24T15:05:28;1.95;;;1.60;;
20861;SDS011;10591;52.532;13.348;2023-04-24T15:08:01;2.33;;;1.50;;
20861;SDS011;10591;52.532;13.348;2023-04-24T15:10:32;1.98;;;1.80;;
20861;SDS011;10591;52.532;13.348;2023-04-24T15:13:03;1.77;;;1.50;;
20861;SDS011;10591;52.532;13.348;2023-04-24T15:15:34;4.72;;;2.50;;